Time;durP1;ratioP1;P1;durP2;ratioP2;P2;SDS_P1;SDS_P2;PMS_P1;PMS_P2;Temp;Humidity;BMP_temperature;BMP_pressure;BME280_temperature;BME280_humidity;BME280_pressure;Samples;Min_cycle;Max_cycle;Signal;HPM_P1;HPM_P2
2021/12/06 00:02:09;;;;;;;26.87;19.43;;;;;3.70;100609.00;;;;10492059;28;20201;-77
2021/12/06 00:07:16;;;;;;;27.40;18.93;;;;;3.60;100620.00;;;;10491880;28;20204;-77
2021/12/06 00:12:18;;;;;;;27.03;18.30;;;;;3.50;100634.00;;;;10466798;28;20194;-77
2021/12/06 00:17:20;;;;;;;26.50;16.77;;;;;3.30;100646.00;;;;10467560;28;20221;-78
2021/12/06 00:22:23;;;;;;;26.07;17.23;;;;;3.30;100649.00;;;;10466726;28;20205;-77
2021/12/06 00:27:26;;;;;;;27.70;18.77;;;;;3.20;100663.00;;;;10481399;28;20250;-77
2021/12/06 00:32:28;;;;;;;25.37;16.80;;;;;3.20;100659.00;;;;10465200;28;20252;-77
2021/12/06 00:37:34;;;;;;;30.17;18.90;;;;;3.20;100674.00;;;;10502993;28;20726;-77
2021/12/06 00:42:36;;;;;;;26.83;16.93;;;;;3.10;100672.00;;;;10466328;28;20296;-78
2021/12/06 00:47:38;;;;;;;26.47;18.23;;;;;3.00;100688.00;;;;10481892;28;20194;-77
2021/12/06 00:52:40;;;;;;;25.60;17.20;;;;;3.00;100698.00;;;;10535360;28;20192;-77
2021/12/06 00:57:42;;;;;;;28.03;17.40;;;;;2.90;100700.00;;;;10529919;28;20212;-77
2021/12/06 01:02:45;;;;;;;32.70;20.87;;;;;2.80;100708.00;;;;10527977;28;20227;-78
2021/12/06 01:07:47;;;;;;;27.80;18.50;;;;;2.60;100723.00;;;;10542528;28;20291;-77
2021/12/06 01:12:49;;;;;;;27.23;17.20;;;;;2.40;100726.00;;;;10489572;28;20196;-77
2021/12/06 01:17:52;;;;;;;26.50;17.80;;;;;2.20;100736.00;;;;10505788;28;20680;-77
2021/12/06 01:23:04;;;;;;;31.23;19.03;;;;;2.10;100745.00;;;;10472442;28;20648;-77
2021/12/06 01:44:17;;;;;;;38.03;20.57;;;;;2.00;100770.00;;;;10489211;28;20232;-77
2021/12/06 01:49:27;;;;;;;31.80;20.00;;;;;1.90;100778.00;;;;10473256;28;20296;-77
2021/12/06 01:54:30;;;;;;;41.23;21.43;;;;;1.90;100776.00;;;;10522462;28;20181;-77
2021/12/06 01:59:33;;;;;;;34.57;21.17;;;;;1.90;100790.00;;;;10471844;28;20220;-77
2021/12/06 02:04:38;;;;;;;38.17;21.73;;;;;2.00;100797.00;;;;10505038;28;20197;-77
2021/12/06 02:09:43;;;;;;;39.10;22.70;;;;;2.10;100798.00;;;;10466971;28;20694;-77
2021/12/06 02:14:57;;;;;;;35.93;22.87;;;;;2.10;100802.00;;;;10462970;28;20220;-77
2021/12/06 02:20:10;;;;;;;36.10;22.33;;;;;2.10;100797.00;;;;10462490;28;20304;-77
2021/12/06 02:25:18;;;;;;;36.87;22.47;;;;;2.00;100794.00;;;;10478994;28;20287;-77
2021/12/06 02:30:22;;;;;;;38.53;22.63;;;;;2.00;100793.00;;;;10463038;28;20292;-77
2021/12/06 02:35:24;;;;;;;36.37;21.40;;;;;1.90;100800.00;;;;10495997;28;20274;-77
2021/12/06 02:40:34;;;;;;;40.00;22.70;;;;;1.90;100804.00;;;;10477524;28;20225;-77
2021/12/06 02:45:40;;;;;;;34.30;20.30;;;;;1.80;100797.00;;;;10461638;28;20199;-77
2021/12/06 02:50:49;;;;;;;31.40;19.70;;;;;1.80;100796.00;;;;10460270;28;20232;-77
2021/12/06 02:55:54;;;;;;;35.87;22.27;;;;;1.70;100796.00;;;;10477841;28;20198;-78
2021/12/06 03:01:00;;;;;;;39.27;22.97;;;;;1.60;100804.00;;;;10477484;28;20225;-77
2021/12/06 03:06:03;;;;;;;34.73;22.57;;;;;1.50;100810.00;;;;10444795;28;20204;-77
2021/12/06 03:11:08;;;;;;;42.20;23.30;;;;;1.40;100826.00;;;;10536148;28;20227;-78
2021/12/06 03:16:10;;;;;;;39.77;22.33;;;;;1.30;100822.00;;;;10528061;28;20727;-77
2021/12/06 03:21:15;;;;;;;37.73;23.20;;;;;1.30;100823.00;;;;10523134;27;20742;-77
2021/12/06 03:26:17;;;;;;;44.00;22.77;;;;;1.30;100821.00;;;;10553224;27;20199;-77
2021/12/06 03:31:22;;;;;;;40.77;24.07;;;;;1.20;100836.00;;;;10569201;27;20226;-77
2021/12/06 03:36:28;;;;;;;38.33;23.67;;;;;1.20;100839.00;;;;10473642;28;20208;-77
2021/12/06 03:41:30;;;;;;;41.83;23.93;;;;;1.10;100837.00;;;;10472210;28;20209;-77
2021/12/06 03:46:34;;;;;;;35.23;21.50;;;;;0.90;100835.00;;;;10492995;28;20215;-77
2021/12/06 03:51:36;;;;;;;36.90;21.80;;;;;0.70;100829.00;;;;10476637;28;20755;-77
2021/12/06 03:56:39;;;;;;;116.67;29.20;;;;;0.60;100839.00;;;;10475406;28;20675;-77
2021/12/06 04:01:42;;;;;;;57.47;22.60;;;;;0.60;100836.00;;;;10524584;28;20212;-77
2021/12/06 04:06:46;;;;;;;51.83;22.70;;;;;0.50;100844.00;;;;10507760;28;20200;-77
2021/12/06 04:11:49;;;;;;;36.53;22.87;;;;;0.50;100844.00;;;;10547885;27;20287;-77
2021/12/06 04:16:52;;;;;;;47.93;26.43;;;;;0.70;100857.00;;;;10535741;27;20195;-77
2021/12/06 04:21:54;;;;;;;60.93;31.37;;;;;0.90;100855.00;;;;10533722;27;20203;-77
2021/12/06 04:26:58;;;;;;;135.57;35.90;;;;;1.20;100843.00;;;;10509834;28;20215;-77
2021/12/06 04:32:01;;;;;;;217.40;43.93;;;;;1.40;100847.00;;;;10490512;28;20251;-77
2021/12/06 04:37:04;;;;;;;217.83;45.87;;;;;1.50;100852.00;;;;10531798;28;20714;-77
2021/12/06 04:42:08;;;;;;;298.23;49.83;;;;;1.60;100848.00;;;;10506436;28;20711;-77
2021/12/06 04:47:11;;;;;;;284.27;50.03;;;;;1.70;100851.00;;;;10506428;28;20322;-77
2021/12/06 04:52:15;;;;;;;256.67;49.03;;;;;1.70;100849.00;;;;10486699;28;20255;-77
2021/12/06 04:57:34;;;;;;;285.73;49.70;;;;;1.80;100867.00;;;;10490070;28;20252;-77
2021/12/06 05:02:38;;;;;;;192.20;41.63;;;;;1.80;100861.00;;;;10474408;28;20207;-77
2021/12/06 05:07:49;;;;;;;206.73;41.13;;;;;1.80;100853.00;;;;10522545;28;20201;-77
2021/12/06 05:12:52;;;;;;;264.70;50.30;;;;;1.90;100844.00;;;;10522762;28;20193;-77
2021/12/06 05:17:55;;;;;;;276.17;49.67;;;;;1.80;100844.00;;;;10473423;28;20930;-77
2021/12/06 05:22:57;;;;;;;225.20;45.67;;;;;1.80;100844.00;;;;10505622;28;20201;-77
2021/12/06 05:28:00;;;;;;;240.10;44.47;;;;;1.80;100865.00;;;;10522704;28;20277;-77
2021/12/06 05:33:04;;;;;;;197.03;43.50;;;;;1.80;100866.00;;;;10472572;28;20251;-77
2021/12/06 05:38:06;;;;;;;184.37;41.57;;;;;1.80;100873.00;;;;10497326;28;20217;-77
2021/12/06 05:43:08;;;;;;;163.47;40.90;;;;;1.80;100872.00;;;;10479048;28;20205;-78
2021/12/06 05:48:10;;;;;;;195.80;39.87;;;;;1.80;100887.00;;;;10464147;28;20201;-78
2021/12/06 05:53:12;;;;;;;199.60;46.23;;;;;1.80;100890.00;;;;10479750;28;20280;-78
2021/12/06 05:58:19;;;;;;;185.33;40.03;;;;;1.70;100911.00;;;;10462932;28;20251;-78
2021/12/06 06:03:22;;;;;;;149.63;42.50;;;;;1.70;100918.00;;;;10447590;28;20201;-78
2021/12/06 06:08:25;;;;;;;169.43;40.23;;;;;1.70;100927.00;;;;10489240;28;20265;-78
2021/12/06 06:13:27;;;;;;;175.13;36.50;;;;;1.70;100924.00;;;;10504411;28;20205;-78
2021/12/06 06:18:29;;;;;;;159.23;36.63;;;;;1.70;100925.00;;;;10467543;28;20216;-78
2021/12/06 06:23:31;;;;;;;169.07;40.33;;;;;1.70;100919.00;;;;10517779;28;20208;-78
2021/12/06 06:28:34;;;;;;;130.07;35.03;;;;;1.80;100929.00;;;;10507066;28;20262;-78
2021/12/06 06:33:36;;;;;;;76.30;30.23;;;;;1.70;100934.00;;;;10449069;28;20247;-78
2021/12/06 06:38:38;;;;;;;89.33;30.17;;;;;1.70;100936.00;;;;10498936;28;20220;-78
2021/12/06 06:43:40;;;;;;;116.77;35.03;;;;;1.70;100943.00;;;;10528222;28;20188;-78
2021/12/06 06:48:42;;;;;;;81.87;30.43;;;;;1.60;100945.00;;;;10528734;28;20199;-78
2021/12/06 06:53:45;;;;;;;99.47;32.93;;;;;1.60;100945.00;;;;10549194;27;20196;-78
2021/12/06 06:58:47;;;;;;;71.97;30.17;;;;;1.70;100950.00;;;;10537318;27;20224;-78
2021/12/06 07:03:54;;;;;;;88.50;30.93;;;;;1.60;100952.00;;;;10553613;27;20672;-78
2021/12/06 07:08:56;;;;;;;140.07;32.23;;;;;1.60;100951.00;;;;10536312;27;20196;-78
2021/12/06 07:14:00;;;;;;;135.33;32.23;;;;;1.60;100940.00;;;;10537378;27;20559;-78
2021/12/06 07:19:02;;;;;;;131.70;33.30;;;;;1.60;100938.00;;;;10536357;27;20220;-78
2021/12/06 07:24:25;;;;;;;158.73;34.07;;;;;1.60;100943.00;;;;10527799;27;20279;-78
2021/12/06 07:29:33;;;;;;;179.17;35.13;;;;;1.50;100936.00;;;;10477571;28;20887;-78
2021/12/06 07:34:36;;;;;;;163.73;38.77;;;;;1.50;100948.00;;;;10492560;28;20274;-78
2021/12/06 07:39:38;;;;;;;121.23;32.87;;;;;1.50;100943.00;;;;10493984;28;20262;-78
2021/12/06 07:44:41;;;;;;;124.13;34.80;;;;;1.50;100941.00;;;;10494031;28;20197;-78
2021/12/06 07:49:44;;;;;;;116.33;31.17;;;;;1.50;100930.00;;;;10494156;28;20197;-78
2021/12/06 07:55:01;;;;;;;109.67;33.10;;;;;1.50;100932.00;;;;10494514;28;20200;-78
2021/12/06 08:00:09;;;;;;;115.87;32.90;;;;;1.50;100929.00;;;;10476241;28;20721;-78
2021/12/06 08:05:30;;;;;;;123.83;32.23;;;;;1.60;100937.00;;;;10490853;28;20204;-78
2021/12/06 08:10:35;;;;;;;89.37;28.13;;;;;1.60;100936.00;;;;10431761;28;20224;-78
2021/12/06 08:15:37;;;;;;;134.23;32.50;;;;;1.60;100947.00;;;;10467475;28;20202;-78
2021/12/06 08:20:41;;;;;;;96.00;30.30;;;;;1.60;100950.00;;;;10467363;28;20225;-78
2021/12/06 08:25:46;;;;;;;88.77;27.93;;;;;1.60;100949.00;;;;10450940;28;20194;-78
2021/12/06 08:30:49;;;;;;;60.03;21.97;;;;;1.70;100954.00;;;;10450198;28;20684;-78
2021/12/06 08:35:52;;;;;;;65.53;23.27;;;;;1.70;100978.00;;;;10450371;28;20576;-77
2021/12/06 08:40:56;;;;;;;72.37;24.37;;;;;1.70;100979.00;;;;10450116;28;20287;-78
2021/12/06 08:46:02;;;;;;;85.00;24.83;;;;;1.80;100976.00;;;;10466535;28;20231;-78
2021/12/06 08:51:12;;;;;;;50.60;22.03;;;;;1.90;100989.00;;;;10450046;28;20204;-78
2021/12/06 08:56:17;;;;;;;55.73;24.23;;;;;1.90;100978.00;;;;10465920;28;20201;-78
2021/12/06 09:01:20;;;;;;;48.13;20.00;;;;;2.00;100988.00;;;;10448838;28;20279;-78
2021/12/06 09:06:49;;;;;;;53.67;21.20;;;;;1.90;100995.00;;;;10468367;28;20656;-78
2021/12/06 09:11:53;;;;;;;50.77;22.30;;;;;1.80;100989.00;;;;10465683;28;20231;-78
2021/12/06 09:16:55;;;;;;;47.13;21.70;;;;;1.90;100984.00;;;;10501794;28;20215;-77
2021/12/06 09:21:57;;;;;;;47.23;22.43;;;;;2.00;100987.00;;;;10470584;28;20240;-78
2021/12/06 09:27:00;;;;;;;45.90;22.30;;;;;2.30;100982.00;;;;10467497;28;20219;-78
2021/12/06 09:32:08;;;;;;;45.03;22.23;;;;;2.40;100980.00;;;;10478148;28;20746;-77
2021/12/06 09:37:11;;;;;;;52.33;23.10;;;;;2.50;100991.00;;;;10451365;28;20194;-78
2021/12/06 09:42:13;;;;;;;46.57;23.30;;;;;3.00;100993.00;;;;10506189;27;20224;-78
2021/12/06 09:47:16;;;;;;;64.37;27.13;;;;;3.10;100999.00;;;;10477231;28;20193;-78
2021/12/06 09:52:18;;;;;;;54.07;25.70;;;;;3.50;100993.00;;;;10501740;28;20613;-78
2021/12/06 09:57:20;;;;;;;60.80;27.47;;;;;3.20;100982.00;;;;10486727;28;20194;-78
2021/12/06 10:02:22;;;;;;;61.33;28.97;;;;;3.30;100968.00;;;;10485064;28;20842;-78
2021/12/06 10:07:29;;;;;;;65.50;29.87;;;;;3.70;100958.00;;;;10502662;28;20206;-78
2021/12/06 10:12:31;;;;;;;62.50;29.77;;;;;3.70;100952.00;;;;10450782;28;20224;-78
2021/12/06 10:17:34;;;;;;;68.63;29.83;;;;;4.00;100930.00;;;;10447692;28;20568;-77
2021/12/06 10:22:36;;;;;;;68.57;31.87;;;;;4.30;100930.00;;;;10458384;28;20604;-77
2021/12/06 10:27:39;;;;;;;58.57;30.30;;;;;4.60;100947.00;;;;10470885;28;20250;-77
2021/12/06 10:32:41;;;;;;;63.30;34.77;;;;;4.90;100944.00;;;;10479607;28;20293;-78
2021/12/06 10:37:52;;;;;;;71.33;36.00;;;;;5.30;100918.00;;;;10525885;28;20706;-78
2021/12/06 10:42:55;;;;;;;46.93;30.03;;;;;5.50;100901.00;;;;10528387;28;20196;-78
2021/12/06 10:48:18;;;;;;;41.03;26.33;;;;;5.60;100885.00;;;;10511455;28;20674;-78
2021/12/06 10:53:27;;;;;;;33.33;21.97;;;;;5.70;100872.00;;;;10499665;28;20316;-77
2021/12/06 10:58:30;;;;;;;38.37;24.43;;;;;5.80;100837.00;;;;10447512;28;20247;-78
2021/12/06 11:03:40;;;;;;;30.13;20.13;;;;;6.00;100863.00;;;;10490069;28;20205;-77
2021/12/06 11:08:42;;;;;;;29.27;21.63;;;;;6.10;100838.00;;;;10444287;28;20219;-77
2021/12/06 11:13:47;;;;;;;32.43;23.00;;;;;6.40;100829.00;;;;10503357;28;20197;-78
2021/12/06 11:18:55;;;;;;;24.83;18.53;;;;;6.40;100826.00;;;;10467115;28;20216;-77
2021/12/06 11:24:11;;;;;;;28.07;19.20;;;;;6.40;100815.00;;;;10465776;28;20514;-78
2021/12/06 11:29:28;;;;;;;26.20;17.90;;;;;6.40;100823.00;;;;10472744;28;20215;-77
2021/12/06 11:34:37;;;;;;;23.33;16.47;;;;;6.70;100819.00;;;;10470625;28;20229;-78
2021/12/06 11:39:39;;;;;;;26.00;17.77;;;;;6.80;100823.00;;;;10466728;28;20229;-78
2021/12/06 11:44:47;;;;;;;22.90;15.27;;;;;7.00;100803.00;;;;10494287;28;20193;-78
2021/12/06 11:49:57;;;;;;;21.30;15.63;;;;;7.20;100778.00;;;;10510778;28;20204;-78
2021/12/06 11:55:09;;;;;;;20.00;14.30;;;;;7.50;100763.00;;;;10490479;28;20205;-78
2021/12/06 12:00:19;;;;;;;19.77;13.30;;;;;6.80;100771.00;;;;10501032;28;20661;-77
2021/12/06 12:05:27;;;;;;;18.97;12.80;;;;;6.50;100753.00;;;;10449597;28;20202;-77
2021/12/06 12:10:44;;;;;;;16.67;11.07;;;;;6.60;100742.00;;;;10478908;28;20707;-77
2021/12/06 12:15:46;;;;;;;16.87;11.43;;;;;6.50;100733.00;;;;10484858;28;20205;-77
2021/12/06 12:20:52;;;;;;;14.50;10.90;;;;;6.40;100742.00;;;;10467390;28;20232;-77
2021/12/06 12:26:02;;;;;;;14.50;9.77;;;;;6.40;100741.00;;;;10449452;28;20657;-77
2021/12/06 12:31:07;;;;;;;16.57;9.90;;;;;6.30;100737.00;;;;10445404;28;20197;-77
2021/12/06 12:36:12;;;;;;;15.27;9.97;;;;;6.20;100733.00;;;;10455482;28;20243;-77
2021/12/06 12:41:17;;;;;;;13.20;9.80;;;;;6.10;100734.00;;;;10475145;28;20266;-78
2021/12/06 12:46:40;;;;;;;16.03;9.37;;;;;6.20;100713.00;;;;10490839;28;20197;-78
2021/12/06 12:51:55;;;;;;;12.50;9.33;;;;;6.20;100686.00;;;;10489209;28;20995;-78
2021/12/06 12:57:12;;;;;;;15.40;9.23;;;;;6.10;100678.00;;;;10488368;28;20200;-78
2021/12/06 13:02:25;;;;;;;12.87;8.67;;;;;6.00;100668.00;;;;10495169;28;20215;-78
2021/12/06 13:07:50;;;;;;;12.27;8.00;;;;;6.10;100653.00;;;;10508524;28;20205;-78
2021/12/06 13:12:59;;;;;;;9.37;6.60;;;;;6.10;100650.00;;;;10478744;28;20207;-78
2021/12/06 13:18:06;;;;;;;9.80;6.03;;;;;6.20;100644.00;;;;10441245;28;20927;-77
2021/12/06 13:23:10;;;;;;;9.17;6.50;;;;;6.20;100629.00;;;;10465328;28;20228;-78
2021/12/06 13:28:13;;;;;;;8.37;5.93;;;;;6.20;100611.00;;;;10512890;28;20204;-78
2021/12/06 13:33:20;;;;;;;9.53;6.13;;;;;6.10;100590.00;;;;10487637;28;20213;-77
2021/12/06 13:38:45;;;;;;;8.47;5.80;;;;;6.10;100567.00;;;;10487343;28;20213;-77
2021/12/06 13:43:52;;;;;;;8.97;6.03;;;;;6.10;100557.00;;;;10457323;28;20548;-78
2021/12/06 13:49:08;;;;;;;11.53;6.53;;;;;6.20;100545.00;;;;10497048;28;20217;-77
2021/12/06 13:54:20;;;;;;;8.67;6.10;;;;;6.20;100529.00;;;;10489748;28;20429;-79
2021/12/06 13:59:41;;;;;;;11.57;6.90;;;;;6.10;100518.00;;;;10494578;28;20213;-77
2021/12/06 14:04:46;;;;;;;9.83;6.13;;;;;6.00;100509.00;;;;10476337;28;20200;-78
2021/12/06 14:09:49;;;;;;;8.10;5.47;;;;;5.80;100511.00;;;;10470764;28;20222;-78
2021/12/06 14:14:55;;;;;;;9.63;6.03;;;;;5.80;100505.00;;;;10488448;28;20652;-77
2021/12/06 14:19:59;;;;;;;9.20;5.53;;;;;5.80;100497.00;;;;10487153;28;20220;-77
2021/12/06 14:25:02;;;;;;;7.57;5.50;;;;;5.90;100480.00;;;;10486964;28;20575;-77
2021/12/06 14:30:17;;;;;;;7.57;5.20;;;;;5.90;100470.00;;;;10471450;28;20265;-77
2021/12/06 14:35:22;;;;;;;9.50;6.00;;;;;5.70;100441.00;;;;10486182;28;20215;-76
2021/12/06 14:40:25;;;;;;;7.60;6.00;;;;;5.50;100450.00;;;;10484748;28;20263;-78
2021/12/06 14:45:27;;;;;;;7.67;5.90;;;;;5.20;100435.00;;;;10472741;28;20243;-77
2021/12/06 14:50:39;;;;;;;7.40;5.87;;;;;5.10;100428.00;;;;10504382;28;20196;-78
2021/12/06 15:01:12;;;;;;;11.27;8.70;;;;;5.20;100392.00;;;;10494292;28;20509;-78
2021/12/06 15:06:16;;;;;;;12.77;8.23;;;;;4.90;100382.00;;;;10511185;28;20196;-78
2021/12/06 15:11:24;;;;;;;14.93;8.57;;;;;4.80;100379.00;;;;10526473;28;20188;-78
2021/12/06 15:16:27;;;;;;;11.90;8.10;;;;;4.70;100379.00;;;;10548742;28;20204;-77
2021/12/06 15:21:30;;;;;;;13.13;8.30;;;;;4.60;100383.00;;;;10519160;28;20319;-77
2021/12/06 15:26:42;;;;;;;11.80;8.13;;;;;4.50;100385.00;;;;10534310;28;20196;-79
2021/12/06 15:31:48;;;;;;;12.43;8.93;;;;;4.50;100405.00;;;;10535539;28;20273;-79
2021/12/06 15:36:52;;;;;;;9.67;6.63;;;;;4.40;100393.00;;;;10535151;28;20594;-79
2021/12/06 15:42:00;;;;;;;13.77;8.13;;;;;4.30;100400.00;;;;10511900;28;20231;-77
2021/12/06 15:47:17;;;;;;;12.27;8.63;;;;;4.30;100389.00;;;;10495108;28;20205;-78
2021/12/06 15:52:25;;;;;;;13.83;8.33;;;;;4.30;100391.00;;;;10510015;28;20204;-78
2021/12/06 15:57:34;;;;;;;14.60;8.90;;;;;4.20;100376.00;;;;10509298;28;20193;-78
2021/12/06 16:02:37;;;;;;;13.43;8.63;;;;;4.20;100375.00;;;;10480377;28;20217;-78
2021/12/06 16:07:40;;;;;;;12.50;9.67;;;;;4.20;100369.00;;;;10488766;28;20208;-78
2021/12/06 16:12:53;;;;;;;14.37;8.87;;;;;4.20;100358.00;;;;10491571;28;20196;-78
2021/12/06 16:18:05;;;;;;;15.03;9.17;;;;;4.20;100362.00;;;;10490521;28;20563;-78
2021/12/06 16:23:16;;;;;;;11.77;8.53;;;;;4.20;100350.00;;;;10525197;28;20241;-78
2021/12/06 16:28:20;;;;;;;13.90;9.43;;;;;4.20;100350.00;;;;10473709;28;20549;-78
2021/12/06 16:33:40;;;;;;;14.73;10.10;;;;;4.20;100335.00;;;;10491577;28;20221;-78
2021/12/06 16:38:42;;;;;;;13.57;8.97;;;;;4.20;100316.00;;;;10479489;28;20201;-78
2021/12/06 16:43:45;;;;;;;13.17;9.17;;;;;4.10;100324.00;;;;10466763;28;20198;-78
2021/12/06 16:48:50;;;;;;;13.50;9.60;;;;;4.00;100316.00;;;;10470087;28;20205;-79
2021/12/06 16:53:52;;;;;;;11.57;8.13;;;;;3.80;100294.00;;;;10489146;28;20207;-79
2021/12/06 16:58:55;;;;;;;14.07;8.40;;;;;3.70;100292.00;;;;10500651;28;20217;-79
2021/12/06 17:03:57;;;;;;;11.63;8.20;;;;;3.60;100290.00;;;;10495952;28;20201;-78
2021/12/06 17:09:00;;;;;;;12.20;8.47;;;;;3.40;100283.00;;;;10439187;28;20213;-78
2021/12/06 17:14:05;;;;;;;15.07;8.60;;;;;3.40;100264.00;;;;10473431;28;20559;-78
2021/12/06 17:19:09;;;;;;;11.97;7.87;;;;;3.20;100271.00;;;;10500134;28;20208;-78
2021/12/06 17:24:34;;;;;;;13.10;8.17;;;;;3.10;100268.00;;;;10483495;28;20197;-78
2021/12/06 17:29:39;;;;;;;11.47;7.13;;;;;2.90;100260.00;;;;10524086;28;20205;-78
2021/12/06 17:34:43;;;;;;;12.83;8.20;;;;;2.80;100258.00;;;;10462007;28;20224;-78
2021/12/06 17:39:47;;;;;;;13.00;7.80;;;;;2.70;100239.00;;;;10446911;28;20217;-78
2021/12/06 17:44:52;;;;;;;13.63;8.90;;;;;2.60;100233.00;;;;10491041;28;20224;-77
2021/12/06 17:49:55;;;;;;;11.93;8.03;;;;;2.60;100212.00;;;;10491390;28;20208;-78
2021/12/06 17:54:57;;;;;;;17.27;9.43;;;;;2.50;100206.00;;;;10502957;28;20208;-78
2021/12/06 18:00:00;;;;;;;10.97;7.23;;;;;2.40;100193.00;;;;10501651;28;20221;-78
2021/12/06 18:05:04;;;;;;;14.90;10.27;;;;;2.30;100183.00;;;;10495306;27;20208;-78
2021/12/06 18:10:06;;;;;;;14.93;8.70;;;;;2.30;100165.00;;;;10472441;28;20204;-78
2021/12/06 18:15:10;;;;;;;11.70;8.63;;;;;2.20;100145.00;;;;10490159;28;20238;-78
2021/12/06 18:20:14;;;;;;;14.37;8.87;;;;;2.20;100139.00;;;;10509270;27;20220;-78
2021/12/06 18:25:16;;;;;;;12.70;7.77;;;;;2.10;100125.00;;;;10538470;28;20515;-78
2021/12/06 18:30:20;;;;;;;16.13;9.13;;;;;2.00;100117.00;;;;10460113;28;20236;-78
2021/12/06 18:35:24;;;;;;;14.37;9.57;;;;;2.00;100083.00;;;;10511895;27;20217;-78
2021/12/06 18:40:44;;;;;;;18.13;10.37;;;;;2.00;100063.00;;;;10497464;28;20672;-78
2021/12/06 18:45:50;;;;;;;10.13;7.37;;;;;1.90;100040.00;;;;10453914;28;20208;-78
2021/12/06 18:50:53;;;;;;;18.77;11.13;;;;;1.90;100035.00;;;;10455371;28;20213;-78
2021/12/06 18:55:58;;;;;;;16.70;10.93;;;;;1.90;100022.00;;;;10481703;28;20201;-79
2021/12/06 19:01:00;;;;;;;16.03;10.17;;;;;1.90;100017.00;;;;10484219;28;20336;-78
2021/12/06 19:06:03;;;;;;;15.53;9.23;;;;;1.80;100014.00;;;;10478426;28;20189;-78
2021/12/06 19:11:06;;;;;;;15.60;11.57;;;;;1.80;100000.00;;;;10480190;28;20292;-78
2021/12/06 19:16:10;;;;;;;17.77;11.20;;;;;1.80;99988.00;;;;10482216;28;20198;-79
2021/12/06 19:21:13;;;;;;;16.23;10.03;;;;;1.80;99969.00;;;;10465060;28;20212;-79
2021/12/06 19:26:16;;;;;;;14.53;10.13;;;;;1.80;99961.00;;;;10473283;28;20189;-78
2021/12/06 19:31:18;;;;;;;19.80;12.13;;;;;1.80;99949.00;;;;10492058;28;20545;-78
2021/12/06 19:36:20;;;;;;;18.70;11.40;;;;;1.80;99942.00;;;;10486498;27;20210;-79
2021/12/06 19:41:23;;;;;;;16.93;10.67;;;;;1.70;99934.00;;;;10514616;28;20228;-78
2021/12/06 19:46:26;;;;;;;16.80;11.63;;;;;1.50;99925.00;;;;10507826;28;20213;-78
2021/12/06 19:51:29;;;;;;;16.50;10.43;;;;;1.40;99923.00;;;;10491777;28;20193;-77
2021/12/06 19:56:32;;;;;;;14.37;9.33;;;;;1.20;99914.00;;;;10474932;28;20288;-77
2021/12/06 20:01:34;;;;;;;18.70;11.63;;;;;1.10;99903.00;;;;10523912;28;20213;-77
2021/12/06 20:06:36;;;;;;;19.80;13.13;;;;;1.10;99892.00;;;;10491731;28;20303;-77
2021/12/06 20:11:38;;;;;;;16.40;10.93;;;;;1.10;99886.00;;;;10476137;28;20193;-78
2021/12/06 20:16:40;;;;;;;14.33;9.37;;;;;1.00;99874.00;;;;10483267;28;20201;-77
2021/12/06 20:21:43;;;;;;;15.47;9.30;;;;;1.10;99875.00;;;;10508332;28;20947;-78
2021/12/06 20:26:46;;;;;;;11.20;7.83;;;;;1.10;99867.00;;;;10506916;28;20201;-78
2021/12/06 20:31:49;;;;;;;11.73;8.23;;;;;1.10;99871.00;;;;10487804;28;20312;-78
2021/12/06 20:36:51;;;;;;;11.60;7.83;;;;;1.10;99874.00;;;;10473075;28;20721;-78
2021/12/06 20:41:53;;;;;;;16.00;9.17;;;;;1.20;99877.00;;;;10506283;28;20207;-79
2021/12/06 20:46:55;;;;;;;14.13;8.63;;;;;1.20;99860.00;;;;10489608;28;20196;-78
2021/12/06 20:51:57;;;;;;;12.63;8.37;;;;;1.20;99871.00;;;;10489467;28;20208;-78
2021/12/06 20:56:59;;;;;;;15.87;9.13;;;;;1.30;99893.00;;;;10488989;28;20201;-79
2021/12/06 21:02:02;;;;;;;16.53;10.23;;;;;1.30;99884.00;;;;10489318;28;20217;-79
2021/12/06 21:07:04;;;;;;;16.20;10.87;;;;;1.30;99905.00;;;;10488830;28;20204;-80
2021/12/06 21:12:29;;;;;;;21.83;14.20;;;;;1.30;99897.00;;;;10447234;28;20205;-79
2021/12/06 21:17:32;;;;;;;22.07;13.23;;;;;1.30;99904.00;;;;10447715;28;20568;-80
2021/12/06 21:22:34;;;;;;;19.20;12.07;;;;;1.30;99920.00;;;;10508698;27;20962;-80
2021/12/06 21:27:38;;;;;;;20.43;13.07;;;;;1.30;99923.00;;;;10528594;27;20835;-79
2021/12/06 21:32:41;;;;;;;25.63;12.53;;;;;1.40;99919.00;;;;10527941;27;20238;-80
2021/12/06 21:37:43;;;;;;;22.53;13.00;;;;;1.50;99919.00;;;;10522674;28;20192;-80
2021/12/06 21:42:44;;;;;;;20.33;12.83;;;;;1.50;99907.00;;;;10469243;28;20642;-79
2021/12/06 21:47:49;;;;;;;21.50;13.27;;;;;1.60;99923.00;;;;10485776;28;20897;-79
2021/12/06 21:52:51;;;;;;;19.63;12.90;;;;;1.60;99932.00;;;;10502543;28;20208;-79
2021/12/06 21:57:54;;;;;;;20.67;12.70;;;;;1.70;99939.00;;;;10462846;28;20197;-79
2021/12/06 22:03:04;;;;;;;21.13;12.87;;;;;1.70;99934.00;;;;10471306;28;20630;-79
2021/12/06 22:08:07;;;;;;;21.60;12.13;;;;;1.80;99938.00;;;;10485790;28;20196;-79
2021/12/06 22:13:09;;;;;;;17.50;10.83;;;;;1.90;99954.00;;;;10469778;28;20207;-79
2021/12/06 22:18:12;;;;;;;18.77;12.17;;;;;2.00;99955.00;;;;10501564;28;20564;-79
2021/12/06 22:23:14;;;;;;;20.43;12.03;;;;;2.00;99959.00;;;;10467109;28;20228;-79
2021/12/06 22:28:17;;;;;;;16.33;10.60;;;;;2.10;99975.00;;;;10519487;28;20193;-79
2021/12/06 22:33:20;;;;;;;18.77;11.90;;;;;2.20;99989.00;;;;10470686;28;20221;-79
2021/12/06 22:38:23;;;;;;;20.63;12.07;;;;;2.30;99993.00;;;;10501482;28;20211;-79
2021/12/06 22:43:25;;;;;;;17.53;11.27;;;;;2.40;100003.00;;;;10501896;28;20220;-79
2021/12/06 22:48:28;;;;;;;19.60;11.53;;;;;2.50;100001.00;;;;10475396;28;20193;-79
2021/12/06 22:53:30;;;;;;;15.47;9.37;;;;;2.50;100031.00;;;;10483091;28;20295;-79
2021/12/06 22:58:32;;;;;;;19.63;10.10;;;;;2.70;100043.00;;;;10481501;28;20197;-79
2021/12/06 23:03:35;;;;;;;22.00;11.30;;;;;2.90;100074.00;;;;10482456;28;20333;-79
2021/12/06 23:08:38;;;;;;;17.83;9.40;;;;;2.90;100077.00;;;;10493390;28;20953;-79
2021/12/06 23:13:40;;;;;;;17.20;9.83;;;;;2.90;100064.00;;;;10485288;28;20212;-79
2021/12/06 23:18:42;;;;;;;15.30;8.97;;;;;2.90;100073.00;;;;10484260;28;20189;-79
2021/12/06 23:23:47;;;;;;;18.80;9.03;;;;;2.90;100083.00;;;;10456369;28;20220;-79
2021/12/06 23:28:52;;;;;;;17.17;9.00;;;;;2.90;100095.00;;;;10483229;28;20292;-79
2021/12/06 23:33:54;;;;;;;21.30;8.67;;;;;3.00;100124.00;;;;10458836;28;20234;-79
2021/12/06 23:49:37;;;;;;;12.27;8.10;;;;;3.40;100149.00;;;;10495521;28;20222;-80
2021/12/06 23:54:40;;;;;;;12.67;7.27;;;;;3.50;100154.00;;;;10487804;28;20264;-79
2021/12/06 23:59:42;;;;;;;18.07;8.03;;;;;3.60;100170.00;;;;10450451;28;20706;-79
